Terminal Aerodrome Forecast
Issued by NWS

Home | Current Version | Previous Version | Text Only | Print | Product List | Glossary On
Versions: 1 2 3 4 5 6 7 8 9 10 11 12 13
552
FTPA31 PHFO 101732
TAFHJH
TAF
PHJH 101732Z 1018/1118 VRB05KT P6SM FEW040
     FM102000 24008KT P6SM FEW040
     FM110000 32008KT P6SM FEW040
     FM110400 VRB05KT P6SM SKC
      AMD NOT SKED 1104/1118=

USA.gov is the U.S. government's official web portal to all federal, state and local government web resources and services.